Aviation Digital Data Service (ADDS)

Output produced by METARs form (0725 UTC 16 September 2014)
found at http://aviationweather.gov/adds/metars/
 
KLEB 160533Z 1606/1706 00000KT P6SM -SHRA SCT050 OVC080 
     TEMPO 1610/1613 1/2SM -SHRA FG OVC002 
     FM161300 VRB03KT 2SM -SHRA BR OVC007 
     FM161400 VRB03KT P6SM -SHRA OVC015 
     FM161800 29005KT P6SM SCT035 BKN050